createdAt,value
2023-05-17T00:03:35.243Z,48.64
2023-05-17T00:08:38.095Z,48.53
2023-05-17T00:13:41.192Z,48.79
2023-05-17T00:18:45.802Z,48.91
2023-05-17T00:23:48.751Z,49.07
2023-05-17T00:28:51.580Z,49.07
2023-05-17T00:33:55.785Z,49.23
2023-05-17T00:38:58.673Z,49.36
2023-05-17T00:44:01.524Z,49.36
2023-05-17T00:49:05.765Z,49.67
2023-05-17T00:54:08.584Z,49.71
2023-05-17T00:59:11.483Z,49.67
2023-05-17T01:04:15.955Z,50.05
2023-05-17T01:09:18.953Z,50.20
2023-05-17T01:14:29.105Z,50.23
2023-05-17T01:19:54.482Z,50.54
2023-05-17T01:25:05.222Z,50.61
2023-05-17T01:30:11.212Z,50.49
2023-05-17T01:35:14.065Z,50.84
2023-05-17T01:40:16.894Z,51.09
2023-05-17T01:45:23.218Z,50.87
2023-05-17T01:50:30.144Z,50.92
2023-05-17T01:55:35.680Z,51.28
2023-05-17T02:00:40.088Z,51.16
2023-05-17T02:05:42.914Z,51.48
2023-05-17T02:10:45.783Z,51.31
2023-05-17T02:15:50.053Z,51.33
2023-05-17T02:20:52.916Z,51.61
2023-05-17T02:25:55.868Z,51.53
2023-05-17T02:31:00.068Z,51.74
2023-05-17T02:36:02.950Z,51.76
2023-05-17T02:41:05.928Z,51.79
2023-05-17T02:46:10.173Z,51.89
2023-05-17T02:51:13.209Z,51.80
2023-05-17T02:56:16.044Z,51.91
2023-05-17T03:01:20.537Z,51.77
2023-05-17T03:06:23.450Z,52.10
2023-05-17T03:11:27.973Z,52.06
2023-05-17T03:16:34.589Z,52.27
2023-05-17T03:21:37.863Z,52.15
2023-05-17T03:26:41.236Z,52.72
2023-05-17T03:31:47.566Z,52.59
2023-05-17T03:36:51.178Z,51.52
2023-05-17T03:41:54.095Z,51.66
2023-05-17T03:46:59.585Z,51.71
2023-05-17T03:52:03.547Z,51.44
2023-05-17T03:57:07.075Z,50.96
2023-05-17T04:02:12.572Z,51.12
2023-05-17T04:07:15.732Z,50.84
2023-05-17T04:12:18.651Z,50.79
2023-05-17T04:17:22.952Z,50.52
2023-05-17T04:22:26.749Z,50.76
2023-05-17T04:27:29.591Z,50.34
2023-05-17T04:32:34.104Z,50.22
2023-05-17T04:37:39.788Z,50.31
2023-05-17T04:42:52.713Z,50.18
2023-05-17T04:47:57.751Z,50.06
2023-05-17T04:53:00.926Z,50.08
2023-05-17T04:58:06.838Z,50.19
2023-05-17T05:03:12.494Z,50.02
2023-05-17T05:08:16.040Z,49.97
2023-05-17T05:13:21.025Z,49.84
2023-05-17T05:18:25.311Z,49.92
2023-05-17T05:23:28.349Z,49.76
2023-05-17T05:28:31.648Z,49.74
2023-05-17T05:33:36.931Z,49.67
2023-05-17T05:38:40.220Z,49.73
2023-05-17T05:43:43.388Z,49.49
2023-05-17T05:48:48.394Z,49.72
2023-05-17T05:53:51.462Z,49.50
2023-05-17T05:58:55.906Z,49.55
2023-05-17T06:04:01.114Z,49.28
2023-05-17T06:09:07.107Z,49.37
2023-05-17T06:14:09.979Z,49.41
2023-05-17T06:19:14.349Z,49.09
2023-05-17T06:24:17.935Z,49.17
2023-05-17T06:29:20.876Z,49.10
2023-05-17T06:34:25.167Z,49.10
2023-05-17T06:39:28.580Z,49.20
2023-05-17T06:44:31.553Z,49.28
2023-05-17T06:49:36.017Z,49.36
2023-05-17T06:54:38.950Z,49.16
2023-05-17T06:59:41.890Z,49.10
2023-05-17T07:04:46.241Z,49.37
2023-05-17T07:09:49.505Z,48.98
2023-05-17T07:14:52.323Z,39.01
2023-05-17T07:19:56.733Z,38.79
2023-05-17T07:24:59.658Z,39.69
2023-05-17T07:30:03.432Z,38.96
2023-05-17T07:35:08.314Z,39.69
2023-05-17T07:40:12.397Z,38.72
2023-05-17T07:45:15.559Z,38.75
2023-05-17T07:50:19.892Z,39.93
2023-05-17T07:55:23.259Z,39.72
2023-05-17T08:00:27.879Z,38.32
2023-05-17T08:05:32.247Z,39.13
2023-05-17T08:10:37.189Z,39.96
2023-05-17T08:15:40.478Z,39.96
2023-05-17T08:20:45.532Z,40.53
2023-05-17T08:25:48.466Z,40.57
2023-05-17T08:30:52.136Z,40.93
2023-05-17T08:35:57.816Z,41.39
2023-05-17T08:41:02.108Z,41.60
2023-05-17T08:46:05.163Z,41.96
2023-05-17T08:51:09.835Z,42.24
2023-05-17T08:56:12.962Z,42.34
2023-05-17T09:01:16.792Z,42.37
2023-05-17T09:06:23.014Z,42.61
2023-05-17T09:11:27.747Z,42.63
2023-05-17T09:16:31.108Z,42.86
2023-05-17T09:21:36.027Z,42.94
2023-05-17T09:26:39.502Z,42.68
2023-05-17T09:31:47.836Z,43.29
2023-05-17T09:36:58.322Z,43.28
2023-05-17T09:42:01.213Z,43.22
2023-05-17T09:47:04.080Z,42.94
2023-05-17T09:52:09.426Z,43.11
2023-05-17T09:57:12.299Z,43.02
2023-05-17T10:02:22.140Z,43.12
2023-05-17T10:07:27.812Z,43.33
2023-05-17T10:12:30.770Z,43.31
2023-05-17T10:17:35.738Z,43.20
2023-05-17T10:22:39.964Z,43.28
2023-05-17T10:27:43.048Z,43.23
2023-05-17T10:32:46.605Z,43.22
2023-05-17T10:37:51.158Z,43.25
2023-05-17T10:42:55.074Z,34.19
2023-05-17T10:47:59.723Z,33.44
2023-05-17T10:53:06.710Z,33.26
2023-05-17T10:58:19.922Z,33.59
2023-05-17T11:03:24.322Z,33.38
2023-05-17T11:08:28.550Z,33.65
2023-05-17T11:13:31.561Z,33.34
2023-05-17T11:18:50.863Z,32.70
2023-05-17T11:23:57.293Z,33.60
2023-05-17T11:29:02.480Z,33.15
2023-05-17T11:34:05.546Z,34.99
2023-05-17T11:39:13.379Z,36.51
2023-05-17T11:44:16.673Z,36.46
2023-05-17T11:49:34.387Z,36.35
2023-05-17T11:54:40.378Z,36.95
2023-05-17T11:59:44.041Z,37.33
2023-05-17T12:04:47.045Z,37.71
2023-05-17T12:09:51.372Z,37.61
2023-05-17T12:14:54.527Z,37.93
2023-05-17T12:19:57.544Z,36.92
2023-05-17T12:25:01.915Z,37.74
2023-05-17T12:30:15.772Z,37.56
2023-05-17T12:35:18.678Z,37.73
2023-05-17T12:40:22.931Z,37.58
2023-05-17T12:45:25.772Z,37.55
2023-05-17T12:50:30.415Z,37.30
2023-05-17T12:55:37.782Z,37.14
2023-05-17T13:00:40.885Z,37.31
2023-05-17T13:05:44.268Z,38.40
2023-05-17T13:10:48.463Z,38.80
2023-05-17T13:15:51.319Z,39.58
2023-05-17T13:20:54.292Z,40.42
2023-05-17T13:25:58.516Z,40.68
2023-05-17T13:31:01.428Z,40.67
2023-05-17T13:36:04.539Z,41.04
2023-05-17T13:41:09.339Z,41.04
2023-05-17T13:46:12.166Z,41.01
2023-05-17T13:51:15.196Z,40.10
2023-05-17T13:56:19.542Z,40.17
2023-05-17T14:01:31.414Z,40.01
2023-05-17T14:06:39.607Z,39.87
2023-05-17T14:11:50.565Z,39.49
2023-05-17T14:16:57.782Z,39.66
2023-05-17T14:22:06.525Z,39.41
2023-05-17T14:27:13.949Z,39.34
2023-05-17T14:32:16.800Z,38.73
2023-05-17T14:37:21.176Z,37.81
2023-05-17T14:42:25.918Z,37.87
2023-05-17T14:47:29.091Z,38.39
2023-05-17T14:52:31.928Z,38.96
2023-05-17T14:57:36.997Z,38.38
2023-05-17T15:02:40.176Z,37.96
2023-05-17T15:07:43.357Z,37.34
2023-05-17T15:12:47.674Z,37.58
2023-05-17T15:17:50.583Z,37.74
2023-05-17T15:22:53.576Z,38.01
2023-05-17T15:27:58.036Z,37.59
2023-05-17T15:33:01.386Z,37.37
2023-05-17T15:38:06.093Z,37.95
2023-05-17T15:43:10.462Z,38.06
2023-05-17T15:48:13.602Z,37.85
2023-05-17T15:53:16.627Z,37.97
2023-05-17T15:58:21.331Z,38.21
2023-05-17T16:03:24.631Z,38.69
2023-05-17T16:08:27.742Z,38.76
2023-05-17T16:13:33.290Z,39.30
2023-05-17T16:18:36.274Z,39.41
2023-05-17T16:23:39.301Z,39.85
2023-05-17T16:28:43.618Z,39.72
2023-05-17T16:33:46.581Z,39.17
2023-05-17T16:38:49.531Z,38.02
2023-05-17T16:43:53.747Z,37.72
2023-05-17T16:48:56.556Z,37.97
2023-05-17T16:53:59.403Z,36.70
2023-05-17T16:59:03.636Z,36.10
2023-05-17T17:04:06.874Z,35.36
2023-05-17T17:09:11.659Z,34.92
2023-05-17T17:14:16.206Z,34.88
2023-05-17T17:19:19.264Z,34.62
2023-05-17T17:24:22.113Z,34.26
2023-05-17T17:29:26.448Z,34.78
2023-05-17T17:34:29.618Z,35.12
2023-05-17T17:39:32.652Z,35.02
2023-05-17T17:44:36.924Z,35.30
2023-05-17T17:49:39.857Z,35.10
2023-05-17T17:54:44.071Z,35.29
2023-05-17T17:59:50.136Z,35.38
2023-05-17T18:04:53.100Z,35.29
2023-05-17T18:09:56.932Z,35.48
2023-05-17T18:15:01.882Z,35.41
2023-05-17T18:20:06.801Z,35.46
2023-05-17T18:25:10.345Z,35.27
2023-05-17T18:30:15.453Z,35.44
2023-05-17T18:35:18.397Z,35.58
2023-05-17T18:40:21.556Z,35.69
2023-05-17T18:45:25.857Z,35.87
2023-05-17T18:50:29.086Z,35.91
2023-05-17T18:55:32.250Z,36.15
2023-05-17T19:00:36.524Z,36.24
2023-05-17T19:05:39.496Z,36.45
2023-05-17T19:10:42.314Z,36.56
2023-05-17T19:15:46.549Z,36.94
2023-05-17T19:20:49.482Z,37.21
2023-05-17T19:25:53.442Z,37.39
2023-05-17T19:30:57.785Z,37.68
2023-05-17T19:36:00.786Z,37.79
2023-05-17T19:41:03.793Z,38.08
2023-05-17T19:46:10.768Z,38.26
2023-05-17T19:51:13.683Z,38.33
2023-05-17T19:56:16.591Z,38.51
2023-05-17T20:01:21.584Z,38.76
2023-05-17T20:06:26.647Z,38.99
2023-05-17T20:11:34.006Z,39.14
2023-05-17T20:16:40.184Z,38.99
2023-05-17T20:21:43.153Z,39.09
2023-05-17T20:26:46.818Z,39.28
2023-05-17T20:31:54.325Z,39.35
2023-05-17T20:36:58.275Z,39.61
2023-05-17T20:42:02.294Z,39.75
2023-05-17T20:47:07.566Z,39.83
2023-05-17T20:52:10.516Z,40.00
2023-05-17T20:57:13.391Z,40.14
2023-05-17T21:02:17.796Z,40.23
2023-05-17T21:07:20.908Z,40.41
2023-05-17T21:12:24.024Z,40.42
2023-05-17T21:17:28.724Z,40.36
2023-05-17T21:22:31.773Z,40.78
2023-05-17T21:27:35.392Z,40.89
2023-05-17T21:32:39.692Z,40.83
2023-05-17T21:37:42.604Z,41.06
2023-05-17T21:42:45.696Z,41.08
2023-05-17T21:47:49.975Z,41.12
2023-05-17T21:52:53.268Z,41.14
2023-05-17T21:57:56.295Z,41.38
2023-05-17T22:03:00.841Z,41.16
2023-05-17T22:08:03.923Z,41.48
2023-05-17T22:13:08.034Z,41.60
2023-05-17T22:18:13.840Z,41.66
2023-05-17T22:23:16.849Z,41.99
2023-05-17T22:28:19.679Z,42.05
2023-05-17T22:33:23.944Z,42.21
2023-05-17T22:38:26.850Z,42.51
2023-05-17T22:43:30.082Z,42.71
2023-05-17T22:48:37.263Z,42.68
2023-05-17T22:53:40.441Z,42.83
2023-05-17T22:58:43.460Z,42.98
2023-05-17T23:03:47.753Z,43.07
2023-05-17T23:08:52.569Z,43.15
2023-05-17T23:13:55.693Z,43.24
2023-05-17T23:19:00.133Z,43.34
2023-05-17T23:24:03.107Z,43.38
2023-05-17T23:29:05.954Z,43.60
2023-05-17T23:34:10.181Z,43.75
2023-05-17T23:39:12.999Z,43.73
2023-05-17T23:44:17.850Z,43.91
2023-05-17T23:49:23.030Z,44.09
2023-05-17T23:54:25.898Z,44.47
2023-05-17T23:59:29.468Z,44.52
